Time;durP1;ratioP1;P1;durP2;ratioP2;P2;SDS_P1;SDS_P2;PMS_P1;PMS_P2;Temp;Humidity;BMP_temperature;BMP_pressure;BME280_temperature;BME280_humidity;BME280_pressure;Samples;Min_cycle;Max_cycle;Signal;HPM_P1;HPM_P2
2021/11/22 00:00:53;;;;;;;0.32;0.32;;;6.50;99.90;;;;;;4395964;32;20081;-69
2021/11/22 00:03:19;;;;;;;0.30;0.30;;;6.40;99.90;;;;;;4396214;32;20097;-70
2021/11/22 00:05:46;;;;;;;1.25;1.15;;;6.40;99.90;;;;;;4397615;32;20098;-70
2021/11/22 00:08:11;;;;;;;10.43;0.95;;;6.40;99.90;;;;;;4400580;32;20457;-69
2021/11/22 00:10:37;;;;;;;1.77;0.82;;;6.50;99.90;;;;;;4396579;32;20086;-69
2021/11/22 00:13:03;;;;;;;0.65;0.55;;;6.40;99.90;;;;;;4397086;32;20106;-70
2021/11/22 00:15:28;;;;;;;0.75;0.65;;;6.40;99.90;;;;;;4400387;32;20121;-69
2021/11/22 00:17:54;;;;;;;0.60;0.60;;;6.40;99.90;;;;;;4399560;32;20075;-69
2021/11/22 00:20:21;;;;;;;1.02;0.80;;;6.50;99.90;;;;;;4393571;32;20295;-69
2021/11/22 00:22:47;;;;;;;0.50;0.50;;;6.50;99.90;;;;;;4400313;32;20074;-70
2021/11/22 00:25:14;;;;;;;0.30;0.30;;;6.50;99.90;;;;;;4396899;32;20066;-69
2021/11/22 00:27:39;;;;;;;2.50;0.73;;;6.60;99.90;;;;;;4393866;32;20079;-69
2021/11/22 00:30:05;;;;;;;0.95;0.47;;;6.60;99.90;;;;;;4396879;32;20058;-70
2021/11/22 00:32:34;;;;;;;0.40;0.40;;;6.60;99.90;;;;;;4397222;32;20124;-69
2021/11/22 00:35:02;;;;;;;0.75;0.68;;;6.60;99.90;;;;;;4397718;32;20073;-69
2021/11/22 00:37:32;;;;;;;0.30;0.30;;;6.60;99.90;;;;;;4398409;32;20087;-69
2021/11/22 00:40:00;;;;;;;0.40;0.40;;;6.50;99.90;;;;;;4394252;32;20111;-71
2021/11/22 00:42:26;;;;;;;1.67;0.80;;;6.50;99.90;;;;;;4395563;32;20087;-70
2021/11/22 00:44:52;;;;;;;2.70;1.08;;;6.60;99.90;;;;;;4400010;32;20496;-69
2021/11/22 00:47:20;;;;;;;17.67;1.37;;;6.70;99.90;;;;;;4395215;32;20082;-70
2021/11/22 00:49:47;;;;;;;1.52;0.85;;;6.70;99.90;;;;;;4401476;32;20418;-69
2021/11/22 00:52:12;;;;;;;2.55;1.42;;;6.80;99.90;;;;;;4393160;32;20484;-70
2021/11/22 00:54:38;;;;;;;0.30;0.30;;;6.80;99.90;;;;;;4397950;32;20071;-69
2021/11/22 00:57:04;;;;;;;0.50;0.50;;;6.80;99.90;;;;;;4398082;32;20070;-70
2021/11/22 00:59:29;;;;;;;14.13;0.70;;;7.00;99.90;;;;;;4397560;32;20082;-69
2021/11/22 01:01:55;;;;;;;0.55;0.55;;;7.00;99.90;;;;;;4398332;32;20815;-70
2021/11/22 01:04:21;;;;;;;0.50;0.50;;;7.00;99.90;;;;;;4393917;32;20066;-69
2021/11/22 01:06:47;;;;;;;0.43;0.43;;;7.00;99.90;;;;;;4397970;32;20072;-69
2021/11/22 01:09:13;;;;;;;3.42;1.23;;;6.90;99.90;;;;;;4394422;32;20119;-69
2021/11/22 01:11:39;;;;;;;0.70;0.40;;;7.00;99.90;;;;;;4396394;32;20531;-69
2021/11/22 01:14:06;;;;;;;0.55;0.55;;;7.00;99.90;;;;;;4398571;32;20151;-70
2021/11/22 01:16:32;;;;;;;0.43;0.43;;;7.10;99.90;;;;;;4397341;32;20136;-70
2021/11/22 01:18:59;;;;;;;0.40;0.40;;;7.10;99.90;;;;;;4396255;32;20075;-70
2021/11/22 01:21:25;;;;;;;3.58;0.82;;;7.00;99.90;;;;;;4396378;32;20070;-70
2021/11/22 01:23:51;;;;;;;0.40;0.40;;;6.90;99.90;;;;;;4398251;32;20085;-69
2021/11/22 01:26:17;;;;;;;0.40;0.40;;;6.90;99.90;;;;;;4396369;32;20336;-69
2021/11/22 01:28:43;;;;;;;1.87;1.17;;;6.80;99.90;;;;;;4398460;32;20520;-69
2021/11/22 01:31:08;;;;;;;0.50;0.50;;;6.90;99.90;;;;;;4393785;32;20074;-70
2021/11/22 01:33:34;;;;;;;0.30;0.30;;;6.80;99.90;;;;;;4400449;32;20132;-69
2021/11/22 01:35:59;;;;;;;0.32;0.32;;;6.80;99.90;;;;;;4398298;32;20090;-69
2021/11/22 01:38:25;;;;;;;0.40;0.40;;;6.80;99.90;;;;;;4395586;32;20058;-70
2021/11/22 01:40:51;;;;;;;0.40;0.40;;;6.80;99.90;;;;;;4395130;32;20168;-69
2021/11/22 01:43:16;;;;;;;0.65;0.60;;;6.80;99.90;;;;;;4397293;32;20101;-69
2021/11/22 01:45:44;;;;;;;0.40;0.40;;;6.80;99.90;;;;;;4396156;32;20128;-68
2021/11/22 01:48:10;;;;;;;0.30;0.30;;;6.80;99.90;;;;;;4400468;32;20075;-70
2021/11/22 01:50:35;;;;;;;0.40;0.40;;;6.80;99.90;;;;;;4396063;32;20574;-71
2021/11/22 01:53:01;;;;;;;0.30;0.30;;;6.80;99.90;;;;;;4401099;32;20066;-68
2021/11/22 01:55:29;;;;;;;0.30;0.30;;;6.80;99.90;;;;;;4398410;32;20074;-70
2021/11/22 01:57:58;;;;;;;0.30;0.30;;;6.90;99.90;;;;;;4401190;32;20090;-70
2021/11/22 02:00:29;;;;;;;1.27;0.65;;;6.90;99.90;;;;;;4396508;32;20571;-70
2021/11/22 02:02:57;;;;;;;0.37;0.37;;;6.80;99.90;;;;;;4398416;32;20062;-68
2021/11/22 02:05:22;;;;;;;0.52;0.50;;;6.90;99.90;;;;;;4397525;32;20107;-69
2021/11/22 02:07:51;;;;;;;3.80;1.17;;;7.00;99.90;;;;;;4398810;32;20082;-69
2021/11/22 02:10:17;;;;;;;0.40;0.40;;;7.00;99.90;;;;;;4395085;32;20083;-70
2021/11/22 02:12:43;;;;;;;0.43;0.43;;;7.00;99.90;;;;;;4402910;32;20066;-70
2021/11/22 02:15:11;;;;;;;0.30;0.30;;;6.90;99.90;;;;;;4400404;32;20082;-69
2021/11/22 02:17:39;;;;;;;4.90;1.45;;;6.90;99.90;;;;;;4400537;32;20079;-69
2021/11/22 02:20:10;;;;;;;0.57;0.57;;;6.90;99.90;;;;;;4399738;32;20078;-69
2021/11/22 02:22:35;;;;;;;;;;;6.80;99.90;;;;;;4400980;32;20169;-69
2021/11/22 02:25:05;;;;;;;1.45;0.50;;;6.80;99.90;;;;;;4399715;32;19956;-69
2021/11/22 02:27:32;;;;;;;0.40;0.40;;;6.80;99.90;;;;;;4398079;32;20082;-69
2021/11/22 02:29:58;;;;;;;0.30;0.30;;;6.90;99.90;;;;;;4397362;32;20144;-68
2021/11/22 02:32:23;;;;;;;0.40;0.40;;;6.80;99.90;;;;;;4401495;32;20089;-69
2021/11/22 02:34:49;;;;;;;0.30;0.30;;;6.80;99.90;;;;;;4397581;32;20569;-69
2021/11/22 02:37:14;;;;;;;2.92;1.35;;;6.90;99.90;;;;;;4398478;32;20142;-70
2021/11/22 02:39:40;;;;;;;0.30;0.30;;;6.80;99.90;;;;;;4397833;32;20132;-68
2021/11/22 02:42:24;;;;;;;0.30;0.30;;;6.70;99.90;;;;;;4400885;32;20089;-70
2021/11/22 02:44:50;;;;;;;0.30;0.30;;;6.70;99.90;;;;;;4398736;32;20285;-69
2021/11/22 02:47:16;;;;;;;0.30;0.30;;;6.70;99.90;;;;;;4402751;32;20061;-69
2021/11/22 02:49:41;;;;;;;0.30;0.30;;;6.60;99.90;;;;;;4396772;32;20078;-70
2021/11/22 02:52:07;;;;;;;0.40;0.40;;;6.50;99.90;;;;;;4397495;32;20086;-70
2021/11/22 02:54:32;;;;;;;1.65;0.60;;;6.50;99.90;;;;;;4399019;32;20074;-70
2021/11/22 02:57:00;;;;;;;0.30;0.30;;;6.50;99.90;;;;;;4398758;32;20106;-69
2021/11/22 02:59:27;;;;;;;0.30;0.30;;;6.60;99.90;;;;;;4404573;32;20418;-69
2021/11/22 03:01:53;;;;;;;0.30;0.30;;;6.70;99.90;;;;;;4399792;32;20123;-70
2021/11/22 03:04:29;;;;;;;0.32;0.32;;;6.80;99.90;;;;;;4400010;32;20140;-70
2021/11/22 03:06:57;;;;;;;0.30;0.30;;;6.80;99.90;;;;;;4397980;32;20081;-71
2021/11/22 03:09:22;;;;;;;0.37;0.37;;;6.80;99.90;;;;;;4396403;32;20074;-69
2021/11/22 03:11:48;;;;;;;2.80;1.48;;;6.80;99.90;;;;;;4405109;32;20578;-69
2021/11/22 03:14:13;;;;;;;0.30;0.30;;;6.80;99.90;;;;;;4398167;32;20071;-69
2021/11/22 03:16:39;;;;;;;0.40;0.40;;;6.80;99.90;;;;;;4394459;32;20547;-69
2021/11/22 03:19:04;;;;;;;0.20;0.20;;;6.90;99.90;;;;;;4395519;32;20095;-69
2021/11/22 03:21:30;;;;;;;0.40;0.40;;;7.00;99.90;;;;;;4399215;32;20114;-69
2021/11/22 03:23:55;;;;;;;0.32;0.32;;;7.00;99.90;;;;;;4400083;32;21391;-68
2021/11/22 03:26:21;;;;;;;0.30;0.30;;;7.00;99.90;;;;;;4394409;32;20490;-70
2021/11/22 03:28:46;;;;;;;0.30;0.30;;;7.00;99.90;;;;;;4398811;32;20129;-70
2021/11/22 03:31:13;;;;;;;0.40;0.40;;;7.00;99.90;;;;;;4397638;32;20070;-70
2021/11/22 03:33:40;;;;;;;0.40;0.40;;;7.00;99.90;;;;;;4400026;32;20535;-69
2021/11/22 03:36:06;;;;;;;0.25;0.25;;;7.00;99.90;;;;;;4398038;32;20074;-69
2021/11/22 03:38:32;;;;;;;0.30;0.30;;;6.90;99.90;;;;;;4397294;32;20199;-70
2021/11/22 03:40:59;;;;;;;0.28;0.28;;;6.90;99.90;;;;;;4398547;32;20090;-69
2021/11/22 03:43:30;;;;;;;0.65;0.60;;;6.90;99.90;;;;;;4398034;32;20536;-69
2021/11/22 03:45:56;;;;;;;0.30;0.30;;;7.00;99.90;;;;;;4397560;32;20121;-70
2021/11/22 03:48:22;;;;;;;0.43;0.43;;;7.10;99.90;;;;;;4397986;32;20085;-69
2021/11/22 03:50:47;;;;;;;0.30;0.30;;;7.10;99.90;;;;;;4397275;32;20080;-69
2021/11/22 03:53:15;;;;;;;0.40;0.40;;;7.00;99.90;;;;;;4398079;32;20078;-69
2021/11/22 03:55:41;;;;;;;0.40;0.40;;;6.90;99.90;;;;;;4401117;32;20074;-69
2021/11/22 03:58:06;;;;;;;0.30;0.30;;;6.90;99.90;;;;;;4399652;32;20074;-69
2021/11/22 04:00:32;;;;;;;0.30;0.30;;;6.90;99.90;;;;;;4397810;32;20425;-69
2021/11/22 04:02:58;;;;;;;0.35;0.35;;;7.00;99.90;;;;;;4397537;32;20132;-68
2021/11/22 04:05:23;;;;;;;0.88;0.70;;;7.00;99.90;;;;;;4400765;32;20094;-69
2021/11/22 04:07:49;;;;;;;0.30;0.30;;;6.90;99.90;;;;;;4393259;32;20073;-70
2021/11/22 04:10:14;;;;;;;0.30;0.30;;;6.90;99.90;;;;;;4399013;32;20140;-69
2021/11/22 04:12:40;;;;;;;3.03;0.60;;;6.90;99.90;;;;;;4398202;32;20125;-69
2021/11/22 04:15:06;;;;;;;0.75;0.60;;;6.80;99.90;;;;;;4396753;32;20125;-69
2021/11/22 04:17:32;;;;;;;0.30;0.30;;;6.80;99.90;;;;;;4395224;32;20114;-69
2021/11/22 04:19:58;;;;;;;0.35;0.35;;;6.80;99.90;;;;;;4397701;32;20125;-69
2021/11/22 04:22:23;;;;;;;0.43;0.43;;;6.90;99.90;;;;;;4398764;32;20099;-69
2021/11/22 04:24:49;;;;;;;3.30;0.75;;;6.90;99.90;;;;;;4397104;32;20065;-68
2021/11/22 04:27:14;;;;;;;0.37;0.37;;;6.90;99.90;;;;;;4393902;32;20128;-69
2021/11/22 04:29:40;;;;;;;0.30;0.30;;;6.90;99.90;;;;;;4397704;32;20083;-69
2021/11/22 04:33:46;;;;;;;0.40;0.40;;;6.90;99.90;;;;;;4462575;32;127987;-69
2021/11/22 04:36:11;;;;;;;0.35;0.30;;;6.90;99.90;;;;;;4454030;32;20078;-68
2021/11/22 04:38:37;;;;;;;0.40;0.40;;;6.90;99.90;;;;;;4453763;32;20073;-68
2021/11/22 04:41:03;;;;;;;0.40;0.40;;;6.90;99.90;;;;;;4457478;32;20068;-69
2021/11/22 04:43:29;;;;;;;0.37;0.37;;;6.80;99.90;;;;;;4455353;32;20120;-68
2021/11/22 04:45:55;;;;;;;0.90;0.90;;;6.80;99.90;;;;;;4460998;32;20231;-68
2021/11/22 04:48:21;;;;;;;0.50;0.50;;;6.90;99.90;;;;;;4455292;32;20089;-68
2021/11/22 04:50:47;;;;;;;0.30;0.30;;;6.90;99.90;;;;;;4458644;32;20460;-69
2021/11/22 04:53:15;;;;;;;2.50;0.85;;;6.70;99.90;;;;;;4459474;32;20133;-70
2021/11/22 04:55:41;;;;;;;0.30;0.30;;;6.70;99.90;;;;;;4453289;32;20073;-69
2021/11/22 04:58:08;;;;;;;0.40;0.40;;;6.70;99.90;;;;;;4455743;32;20077;-69
2021/11/22 05:00:35;;;;;;;58.17;0.75;;;6.80;99.90;;;;;;4453829;32;20569;-70
2021/11/22 05:03:04;;;;;;;0.30;0.30;;;6.80;99.90;;;;;;4459560;32;20061;-69
2021/11/22 05:05:29;;;;;;;0.30;0.30;;;6.70;99.90;;;;;;4453427;32;20537;-69
2021/11/22 05:07:55;;;;;;;0.57;0.57;;;6.70;99.90;;;;;;4455251;32;20081;-70
2021/11/22 05:10:22;;;;;;;0.30;0.30;;;6.70;99.90;;;;;;4456431;32;20081;-69
2021/11/22 05:12:48;;;;;;;0.75;0.70;;;6.60;99.90;;;;;;4446676;32;20498;-69
2021/11/22 05:15:14;;;;;;;0.30;0.30;;;6.60;99.90;;;;;;4443085;32;20105;-69
2021/11/22 05:17:41;;;;;;;0.30;0.30;;;6.60;99.90;;;;;;4445605;32;20093;-70
2021/11/22 05:20:07;;;;;;;0.20;0.20;;;6.50;99.90;;;;;;4441482;32;20089;-69
2021/11/22 05:22:33;;;;;;;0.28;0.28;;;6.50;99.90;;;;;;4438108;32;20061;-70
2021/11/22 05:25:00;;;;;;;0.30;0.30;;;6.50;99.90;;;;;;4446721;32;20084;-69
2021/11/22 05:27:30;;;;;;;0.30;0.30;;;6.60;99.90;;;;;;4440966;32;20073;-69
2021/11/22 05:29:56;;;;;;;0.30;0.30;;;6.50;99.90;;;;;;4441907;32;20074;-69
2021/11/22 05:32:22;;;;;;;0.40;0.40;;;6.50;99.90;;;;;;4445892;32;20069;-69
2021/11/22 05:34:51;;;;;;;0.40;0.40;;;6.50;99.90;;;;;;4443815;32;20093;-70
2021/11/22 05:37:17;;;;;;;11.80;0.85;;;6.40;99.90;;;;;;4440596;32;20698;-68
2021/11/22 05:39:44;;;;;;;0.30;0.30;;;6.20;99.90;;;;;;4437983;32;20545;-69
2021/11/22 05:42:11;;;;;;;0.40;0.40;;;6.10;99.90;;;;;;4447554;32;20102;-69
2021/11/22 05:44:36;;;;;;;0.32;0.32;;;6.00;99.90;;;;;;4433604;32;20069;-69
2021/11/22 05:47:05;;;;;;;0.50;0.50;;;6.00;99.90;;;;;;4437771;32;20491;-69
2021/11/22 05:49:33;;;;;;;0.57;0.57;;;6.00;99.90;;;;;;4436920;32;20065;-69
2021/11/22 05:52:00;;;;;;;0.20;0.20;;;6.10;99.90;;;;;;4438837;32;20077;-69
2021/11/22 05:54:25;;;;;;;0.30;0.30;;;6.10;99.90;;;;;;4433938;32;20069;-68
2021/11/22 05:56:52;;;;;;;0.40;0.40;;;6.00;99.90;;;;;;4438811;32;20441;-69
2021/11/22 05:59:18;;;;;;;0.52;0.52;;;6.00;99.90;;;;;;4433451;32;20082;-68
2021/11/22 06:01:44;;;;;;;0.30;0.30;;;6.00;99.90;;;;;;4426944;32;20089;-68
2021/11/22 06:04:09;;;;;;;0.30;0.30;;;5.90;99.90;;;;;;4426031;32;20120;-68
2021/11/22 06:06:36;;;;;;;0.30;0.30;;;6.00;99.90;;;;;;4427726;32;20091;-69
2021/11/22 06:09:02;;;;;;;0.40;0.40;;;6.00;99.90;;;;;;4431779;32;20569;-69
2021/11/22 06:11:28;;;;;;;0.30;0.30;;;5.90;99.90;;;;;;4425991;32;20546;-68
2021/11/22 06:13:53;;;;;;;0.52;0.52;;;5.80;99.90;;;;;;4428533;32;20089;-68
2021/11/22 06:16:19;;;;;;;0.30;0.30;;;5.80;99.90;;;;;;4429309;32;20089;-68
2021/11/22 06:18:44;;;;;;;0.75;0.75;;;5.90;99.90;;;;;;4416772;32;20064;-69
2021/11/22 06:21:10;;;;;;;0.30;0.30;;;5.80;99.90;;;;;;4428540;32;20085;-69
2021/11/22 06:23:36;;;;;;;0.30;0.30;;;5.80;99.90;;;;;;4435515;32;20089;-69
2021/11/22 06:26:01;;;;;;;0.30;0.30;;;5.80;99.90;;;;;;4422572;32;20124;-68
2021/11/22 06:28:27;;;;;;;0.32;0.32;;;5.60;99.90;;;;;;4418719;32;20064;-68
2021/11/22 06:30:53;;;;;;;0.40;0.40;;;5.60;99.90;;;;;;4415908;32;20106;-69
2021/11/22 06:33:19;;;;;;;0.30;0.30;;;5.60;99.90;;;;;;4414256;32;20520;-69
2021/11/22 06:35:45;;;;;;;0.40;0.40;;;5.50;99.90;;;;;;4426780;32;20085;-69
2021/11/22 06:38:12;;;;;;;0.52;0.52;;;5.40;99.90;;;;;;4422668;32;20577;-68
2021/11/22 06:40:37;;;;;;;0.40;0.40;;;5.40;99.90;;;;;;4426971;32;21602;-69
2021/11/22 06:43:03;;;;;;;0.20;0.20;;;5.50;99.90;;;;;;4425789;32;20157;-68
2021/11/22 06:45:30;;;;;;;0.50;0.50;;;5.50;99.90;;;;;;4425173;32;20085;-68
2021/11/22 06:47:55;;;;;;;0.40;0.40;;;5.50;99.90;;;;;;4429842;32;20077;-69
2021/11/22 06:50:23;;;;;;;0.40;0.40;;;5.60;99.90;;;;;;4425464;32;20077;-69
2021/11/22 06:52:50;;;;;;;2.28;1.50;;;5.60;99.90;;;;;;4422999;32;20500;-68
2021/11/22 06:55:16;;;;;;;0.37;0.37;;;5.40;99.90;;;;;;4421309;32;20116;-72
2021/11/22 06:57:42;;;;;;;1.25;0.65;;;5.50;99.90;;;;;;4424232;32;20755;-67
2021/11/22 07:00:11;;;;;;;1.12;0.50;;;5.40;99.90;;;;;;4419508;32;20330;-68
2021/11/22 07:02:39;;;;;;;0.43;0.43;;;5.50;99.90;;;;;;4427764;32;20064;-69
2021/11/22 07:05:06;;;;;;;0.30;0.30;;;5.40;99.90;;;;;;4418320;32;20356;-68
2021/11/22 07:07:33;;;;;;;0.35;0.35;;;5.40;99.90;;;;;;4419524;32;20088;-69
2021/11/22 07:09:58;;;;;;;0.28;0.28;;;5.40;99.90;;;;;;4421214;32;20423;-67
2021/11/22 07:12:25;;;;;;;0.25;0.25;;;5.50;99.90;;;;;;4421912;32;20093;-68
2021/11/22 07:14:51;;;;;;;0.30;0.30;;;5.50;99.90;;;;;;4415515;32;20073;-68
2021/11/22 07:17:16;;;;;;;0.32;0.32;;;5.60;99.90;;;;;;4416430;32;20185;-67
2021/11/22 07:19:43;;;;;;;2.15;0.80;;;5.60;99.90;;;;;;4417155;32;20082;-68
2021/11/22 07:22:10;;;;;;;0.68;0.68;;;5.60;99.90;;;;;;4412356;32;20088;-68
2021/11/22 07:24:39;;;;;;;0.45;0.45;;;5.50;99.90;;;;;;4415514;32;20101;-68
2021/11/22 07:27:06;;;;;;;0.52;0.40;;;5.40;99.90;;;;;;4415361;32;20101;-67
2021/11/22 07:29:31;;;;;;;0.50;0.50;;;5.40;99.90;;;;;;4420925;32;20069;-70
2021/11/22 07:31:58;;;;;;;0.25;0.25;;;5.40;99.90;;;;;;4422407;32;20097;-69
2021/11/22 07:34:24;;;;;;;0.37;0.37;;;5.40;99.90;;;;;;4417434;32;20449;-70
2021/11/22 07:36:50;;;;;;;0.30;0.30;;;5.50;99.90;;;;;;4419318;32;20104;-70
2021/11/22 07:39:16;;;;;;;0.30;0.30;;;5.60;99.90;;;;;;4420258;32;20188;-69
2021/11/22 07:41:41;;;;;;;0.30;0.30;;;5.60;99.90;;;;;;4418741;32;20661;-69
2021/11/22 07:44:08;;;;;;;0.30;0.30;;;5.60;99.90;;;;;;4418943;32;20073;-69
2021/11/22 07:46:34;;;;;;;0.30;0.30;;;5.70;99.90;;;;;;4424007;32;20089;-68
2021/11/22 07:49:00;;;;;;;0.65;0.62;;;5.80;99.90;;;;;;4421500;32;20105;-69
2021/11/22 07:51:26;;;;;;;2.85;1.17;;;5.70;99.90;;;;;;4420212;32;20093;-68
2021/11/22 07:53:52;;;;;;;0.35;0.35;;;5.80;99.90;;;;;;4422128;32;20086;-70
2021/11/22 07:56:18;;;;;;;0.40;0.40;;;5.80;99.90;;;;;;4423334;32;20121;-68
2021/11/22 07:58:45;;;;;;;0.40;0.40;;;5.90;99.90;;;;;;4416887;32;20129;-69
2021/11/22 08:01:10;;;;;;;0.30;0.30;;;5.90;99.90;;;;;;4419210;32;20491;-69
2021/11/22 08:03:36;;;;;;;0.43;0.43;;;5.80;99.90;;;;;;4414720;32;20086;-69
2021/11/22 08:06:02;;;;;;;0.30;0.30;;;5.90;99.90;;;;;;4402608;32;20093;-69
2021/11/22 08:08:30;;;;;;;0.30;0.30;;;6.00;99.90;;;;;;4406081;32;20156;-70
2021/11/22 08:13:39;;;;;;;0.37;0.37;;;6.20;99.90;;;;;;4410557;32;20133;-70
2021/11/22 08:16:08;;;;;;;0.30;0.30;;;6.30;99.90;;;;;;4414233;32;20144;-70
2021/11/22 08:18:36;;;;;;;0.65;0.65;;;6.20;99.90;;;;;;4417342;32;20132;-70
2021/11/22 08:21:03;;;;;;;1.27;1.05;;;6.20;99.90;;;;;;4418828;32;20069;-70
2021/11/22 08:23:29;;;;;;;0.30;0.30;;;6.20;99.90;;;;;;4417280;32;20570;-70
2021/11/22 08:25:55;;;;;;;0.30;0.30;;;6.30;99.90;;;;;;4418320;32;20073;-70
2021/11/22 08:28:21;;;;;;;0.30;0.30;;;6.30;99.90;;;;;;4416571;32;20088;-70
2021/11/22 08:30:48;;;;;;;0.30;0.30;;;6.40;99.90;;;;;;4414468;32;20101;-69
2021/11/22 08:33:15;;;;;;;0.40;0.40;;;6.50;99.90;;;;;;4410764;32;20121;-70
2021/11/22 08:35:41;;;;;;;0.30;0.30;;;6.50;99.90;;;;;;4411259;32;20544;-70
2021/11/22 08:38:09;;;;;;;0.30;0.30;;;6.60;99.90;;;;;;4412710;32;20112;-69
2021/11/22 08:40:36;;;;;;;0.47;0.47;;;6.70;99.90;;;;;;4410307;32;20463;-68
2021/11/22 08:43:02;;;;;;;0.30;0.30;;;6.70;99.90;;;;;;4414481;32;20069;-69
2021/11/22 08:45:28;;;;;;;0.28;0.28;;;6.70;99.90;;;;;;4415297;32;20562;-69
2021/11/22 08:47:54;;;;;;;0.28;0.28;;;6.70;99.90;;;;;;4411952;32;20217;-69
2021/11/22 08:50:21;;;;;;;8.40;0.65;;;6.70;99.90;;;;;;4407114;32;20477;-71
2021/11/22 08:52:48;;;;;;;0.30;0.30;;;6.70;99.90;;;;;;4402955;32;20139;-69
2021/11/22 08:55:15;;;;;;;0.30;0.30;;;6.90;99.90;;;;;;4399707;32;20411;-67
2021/11/22 08:57:41;;;;;;;0.20;0.20;;;6.90;99.90;;;;;;4408277;32;20115;-67
2021/11/22 09:00:10;;;;;;;0.30;0.30;;;6.90;99.90;;;;;;4405776;32;20188;-66
2021/11/22 09:02:36;;;;;;;0.40;0.40;;;7.10;99.90;;;;;;4409845;32;20089;-71
2021/11/22 09:05:02;;;;;;;0.30;0.30;;;7.10;99.90;;;;;;4408644;32;20094;-71
2021/11/22 09:07:27;;;;;;;0.30;0.30;;;7.10;99.90;;;;;;4412007;32;20460;-71
2021/11/22 09:09:53;;;;;;;0.30;0.30;;;7.20;99.90;;;;;;4407789;32;20093;-69
2021/11/22 09:12:18;;;;;;;0.30;0.30;;;7.10;99.90;;;;;;4409465;32;20152;-69
2021/11/22 09:14:44;;;;;;;0.20;0.20;;;7.20;99.90;;;;;;4413775;32;20109;-69
2021/11/22 09:17:10;;;;;;;0.22;0.22;;;7.20;99.90;;;;;;4410829;32;20160;-69
2021/11/22 09:19:36;;;;;;;0.30;0.30;;;7.20;99.90;;;;;;4408265;32;21026;-70
2021/11/22 09:22:02;;;;;;;0.40;0.40;;;7.30;99.90;;;;;;4397542;32;20081;-70
2021/11/22 09:24:28;;;;;;;0.20;0.20;;;7.30;99.90;;;;;;4399104;32;20093;-70
2021/11/22 09:26:53;;;;;;;1.58;0.82;;;7.40;99.90;;;;;;4399547;32;20069;-68
2021/11/22 09:29:19;;;;;;;0.30;0.30;;;7.50;99.90;;;;;;4403053;32;20081;-68
2021/11/22 09:31:44;;;;;;;0.40;0.40;;;7.50;99.90;;;;;;4400714;32;20110;-70
2021/11/22 09:34:10;;;;;;;0.45;0.45;;;7.40;99.90;;;;;;4398367;32;20145;-70
2021/11/22 09:36:35;;;;;;;0.45;0.45;;;7.50;99.90;;;;;;4398311;32;20542;-70
2021/11/22 09:39:02;;;;;;;0.30;0.30;;;7.70;99.90;;;;;;4408669;32;20136;-70
2021/11/22 09:41:28;;;;;;;1.98;0.52;;;7.70;99.90;;;;;;4403725;32;20112;-70
2021/11/22 09:43:55;;;;;;;1.75;1.17;;;7.80;99.90;;;;;;4410617;32;20093;-70
2021/11/22 09:46:21;;;;;;;0.40;0.40;;;7.80;99.90;;;;;;4406559;32;20443;-69
2021/11/22 09:48:47;;;;;;;1.20;1.02;;;7.90;99.90;;;;;;4403313;32;20834;-70
2021/11/22 09:51:12;;;;;;;0.40;0.40;;;8.00;99.90;;;;;;4399899;32;20117;-70
2021/11/22 09:53:40;;;;;;;0.30;0.30;;;8.10;99.90;;;;;;4404531;32;20089;-70
2021/11/22 09:56:08;;;;;;;0.47;0.47;;;8.20;99.90;;;;;;4399560;32;20101;-69
2021/11/22 09:58:33;;;;;;;0.37;0.37;;;8.20;99.90;;;;;;4403722;32;20558;-70
2021/11/22 10:01:10;;;;;;;0.20;0.20;;;8.20;99.90;;;;;;4398671;32;20499;-70
2021/11/22 10:03:35;;;;;;;0.37;0.37;;;8.20;99.90;;;;;;4395892;32;20085;-71
2021/11/22 10:06:03;;;;;;;0.22;0.22;;;8.20;99.90;;;;;;4398765;32;20113;-69
2021/11/22 10:08:36;;;;;;;0.30;0.30;;;8.20;99.90;;;;;;4401619;32;20242;-69
2021/11/22 10:11:02;;;;;;;0.30;0.30;;;8.30;99.90;;;;;;4410854;32;20093;-70
2021/11/22 10:13:31;;;;;;;0.40;0.40;;;8.30;99.90;;;;;;4414559;32;20135;-69
2021/11/22 10:16:00;;;;;;;0.28;0.28;;;8.30;99.90;;;;;;4411684;32;20369;-69
2021/11/22 10:18:31;;;;;;;0.30;0.30;;;8.50;99.90;;;;;;4410510;32;20550;-69
2021/11/22 10:21:04;;;;;;;0.35;0.35;;;8.50;99.90;;;;;;4411667;32;21415;-69
2021/11/22 10:23:31;;;;;;;0.30;0.30;;;8.60;99.90;;;;;;4415394;32;20066;-70
2021/11/22 10:25:57;;;;;;;0.22;0.22;;;8.60;99.90;;;;;;4405323;32;20110;-69
2021/11/22 10:28:28;;;;;;;0.30;0.30;;;8.70;99.90;;;;;;4409501;32;20077;-69
2021/11/22 10:30:57;;;;;;;0.40;0.40;;;8.70;99.90;;;;;;4408755;32;20467;-69
2021/11/22 10:33:26;;;;;;;0.47;0.47;;;8.70;99.90;;;;;;4415680;32;20573;-69
2021/11/22 10:35:55;;;;;;;0.30;0.30;;;8.70;99.90;;;;;;4417501;32;20089;-70
2021/11/22 10:38:24;;;;;;;0.25;0.25;;;8.60;99.90;;;;;;4415879;32;20089;-69
2021/11/22 10:40:56;;;;;;;0.30;0.30;;;8.50;99.90;;;;;;4416959;32;20100;-71
2021/11/22 10:43:35;;;;;;;0.22;0.22;;;8.40;99.90;;;;;;4418798;32;20058;-70
2021/11/22 10:46:05;;;;;;;0.30;0.30;;;8.40;99.90;;;;;;4413343;32;20112;-70
2021/11/22 10:48:31;;;;;;;0.30;0.30;;;8.50;99.90;;;;;;4417197;32;20092;-70
2021/11/22 10:51:25;;;;;;;0.30;0.30;;;8.50;99.90;;;;;;4410570;32;20102;-70
2021/11/22 10:53:55;;;;;;;0.30;0.30;;;8.60;99.90;;;;;;4413834;32;20117;-70
2021/11/22 10:56:23;;;;;;;0.30;0.30;;;8.70;99.90;;;;;;4411100;32;20129;-70
2021/11/22 10:58:56;;;;;;;0.30;0.30;;;8.60;99.90;;;;;;4416195;32;20080;-70
2021/11/22 11:01:29;;;;;;;0.37;0.37;;;8.80;99.90;;;;;;4419740;32;20155;-70
2021/11/22 11:03:57;;;;;;;0.40;0.40;;;8.90;99.90;;;;;;4418272;32;20072;-71
2021/11/22 11:06:44;;;;;;;0.35;0.35;;;9.10;99.90;;;;;;4418460;32;20632;-70
2021/11/22 11:09:15;;;;;;;0.40;0.40;;;9.10;99.90;;;;;;4413121;32;20100;-70
2021/11/22 11:11:41;;;;;;;0.22;0.22;;;9.00;99.90;;;;;;4420227;32;20135;-69
2021/11/22 11:14:11;;;;;;;0.22;0.22;;;9.00;99.90;;;;;;4419001;32;20144;-69
2021/11/22 11:16:39;;;;;;;0.30;0.30;;;8.80;99.90;;;;;;4409607;32;20479;-71
2021/11/22 11:19:08;;;;;;;0.22;0.22;;;8.60;99.90;;;;;;4410084;32;20140;-71
2021/11/22 11:21:38;;;;;;;0.25;0.25;;;8.50;99.90;;;;;;4412568;32;20093;-70
2021/11/22 11:24:04;;;;;;;6.78;1.37;;;8.50;99.90;;;;;;4414935;32;20085;-69
2021/11/22 11:26:31;;;;;;;0.40;0.40;;;8.50;99.90;;;;;;4406425;32;20558;-69
2021/11/22 11:28:57;;;;;;;0.20;0.20;;;8.80;99.90;;;;;;4410269;32;20433;-69
2021/11/22 11:31:23;;;;;;;0.57;0.57;;;9.20;99.90;;;;;;4415286;32;20143;-69
2021/11/22 11:33:50;;;;;;;0.40;0.40;;;9.40;99.90;;;;;;4407961;32;20094;-70
2021/11/22 11:36:43;;;;;;;0.30;0.30;;;9.40;99.90;;;;;;4412025;32;20566;-70
2021/11/22 11:39:35;;;;;;;0.30;0.30;;;9.10;99.90;;;;;;4411528;32;20117;-69
2021/11/22 11:42:10;;;;;;;0.30;0.30;;;9.20;99.90;;;;;;4400562;32;20156;-69
2021/11/22 11:44:55;;;;;;;0.30;0.30;;;9.60;99.90;;;;;;4408424;32;20420;-70
2021/11/22 11:47:39;;;;;;;0.30;0.30;;;9.60;99.90;;;;;;4414775;32;20088;-69
2021/11/22 11:50:25;;;;;;;1.75;0.85;;;9.40;99.90;;;;;;4411421;32;20113;-68
2021/11/22 11:52:55;;;;;;;0.52;0.52;;;9.10;99.90;;;;;;4414561;32;20417;-69
2021/11/22 11:55:20;;;;;;;0.30;0.30;;;9.00;99.90;;;;;;4411825;32;20073;-70
2021/11/22 11:57:46;;;;;;;0.30;0.30;;;8.90;99.90;;;;;;4408073;32;20073;-68
2021/11/22 12:00:28;;;;;;;0.25;0.25;;;8.80;99.90;;;;;;4412947;32;20066;-68
2021/11/22 12:03:03;;;;;;;0.30;0.30;;;8.70;99.90;;;;;;4407496;32;20143;-69
2021/11/22 12:05:48;;;;;;;0.37;0.37;;;8.60;99.90;;;;;;4414372;32;20099;-70
2021/11/22 12:08:31;;;;;;;0.32;0.32;;;8.60;99.90;;;;;;4414849;32;20090;-70
2021/11/22 12:11:01;;;;;;;0.30;0.30;;;9.10;99.90;;;;;;4414905;32;20097;-70
2021/11/22 12:13:53;;;;;;;0.30;0.30;;;9.70;99.90;;;;;;4413847;32;20645;-69
2021/11/22 12:16:41;;;;;;;0.30;0.30;;;10.20;99.90;;;;;;4413677;32;20822;-68
2021/11/22 12:19:39;;;;;;;0.30;0.30;;;10.50;99.90;;;;;;4411261;32;20086;-69
2021/11/22 12:22:12;;;;;;;0.30;0.30;;;10.40;99.90;;;;;;4408295;32;20070;-71
2021/11/22 12:24:39;;;;;;;0.30;0.30;;;10.20;99.90;;;;;;4412221;32;20070;-71
2021/11/22 12:27:27;;;;;;;0.20;0.20;;;9.80;99.90;;;;;;4410345;32;20077;-67
2021/11/22 12:29:53;;;;;;;2.30;0.60;;;9.50;99.90;;;;;;4402283;32;20102;-70
2021/11/22 12:32:24;;;;;;;0.30;0.30;;;9.10;99.90;;;;;;4413604;32;20417;-69
2021/11/22 12:34:56;;;;;;;0.28;0.28;;;9.00;99.90;;;;;;4418251;32;20088;-70
2021/11/22 12:37:24;;;;;;;0.30;0.30;;;9.20;99.90;;;;;;4411268;32;20108;-70
2021/11/22 12:39:50;;;;;;;0.32;0.32;;;9.80;99.90;;;;;;4409701;32;20109;-69
2021/11/22 12:42:19;;;;;;;0.40;0.40;;;10.10;99.90;;;;;;4410610;32;20460;-69
2021/11/22 12:45:06;;;;;;;0.30;0.30;;;10.30;99.90;;;;;;4416413;32;20744;-70
2021/11/22 12:47:31;;;;;;;0.30;0.30;;;10.50;99.90;;;;;;4406261;32;20097;-70
2021/11/22 12:50:16;;;;;;;0.30;0.30;;;10.90;99.90;;;;;;4401946;32;20121;-70
2021/11/22 12:52:42;;;;;;;18.92;0.60;;;11.30;98.70;;;;;;4407993;32;20475;-70
2021/11/22 12:55:14;;;;;;;0.70;0.70;;;11.30;99.40;;;;;;4415164;32;20125;-70
2021/11/22 12:57:43;;;;;;;0.30;0.30;;;11.30;99.10;;;;;;4411428;32;20072;-70
2021/11/22 13:00:22;;;;;;;0.35;0.35;;;10.60;99.70;;;;;;4416631;32;20107;-70
2021/11/22 13:03:02;;;;;;;0.30;0.30;;;10.60;99.60;;;;;;4409368;32;20101;-68
2021/11/22 13:06:04;;;;;;;0.30;0.30;;;10.20;99.50;;;;;;4415947;32;20474;-68